Time;durP1;ratioP1;P1;durP2;ratioP2;P2;SDS_P1;SDS_P2;PMS_P1;PMS_P2;Temp;Humidity;BMP_temperature;BMP_pressure;BME280_temperature;BME280_humidity;BME280_pressure;Samples;Min_cycle;Max_cycle;Signal;HPM_P1;HPM_P2
2021/12/30 00:01:33;;;;;;;;;0.00;0.00;;;;;;;;4957763;28;45263;-49
2021/12/30 00:03:59;;;;;;;;;0.00;0.00;;;;;;;;4957923;28;45396;-48
2021/12/30 00:06:24;;;;;;;;;0.00;0.00;;;;;;;;4957906;28;45290;-49
2021/12/30 00:08:51;;;;;;;;;0.00;0.00;;;;;;;;4957663;28;45281;-50
2021/12/30 00:11:16;;;;;;;;;0.00;0.00;;;;;;;;4956986;28;45387;-51
2021/12/30 00:13:45;;;;;;;;;0.00;0.00;;;;;;;;4957919;28;45303;-52
2021/12/30 00:16:11;;;;;;;;;1.00;1.00;;;;;;;;4956584;28;45532;-49
2021/12/30 00:18:36;;;;;;;;;0.00;0.00;;;;;;;;4957594;28;45273;-53
2021/12/30 00:21:01;;;;;;;;;0.33;0.00;;;;;;;;4956907;28;45460;-51
2021/12/30 00:23:27;;;;;;;;;0.67;0.67;;;;;;;;4957625;28;45306;-53
2021/12/30 00:25:52;;;;;;;;;1.00;1.00;;;;;;;;4958094;28;45249;-47
2021/12/30 00:28:19;;;;;;;;;1.00;1.00;;;;;;;;4957605;28;45303;-51
2021/12/30 00:30:45;;;;;;;;;1.33;0.00;;;;;;;;4957551;28;45432;-53
2021/12/30 00:33:10;;;;;;;;;1.00;0.00;;;;;;;;4957217;28;45375;-46
2021/12/30 00:35:36;;;;;;;;;0.00;0.00;;;;;;;;4957663;28;45563;-48
2021/12/30 00:38:01;;;;;;;;;1.00;1.00;;;;;;;;4957417;28;45509;-51
2021/12/30 00:40:27;;;;;;;;;0.00;0.00;;;;;;;;4957439;28;45429;-50
2021/12/30 00:42:52;;;;;;;;;0.00;0.00;;;;;;;;4957243;28;45428;-48
2021/12/30 00:45:17;;;;;;;;;1.00;1.00;;;;;;;;4957295;28;45468;-46
2021/12/30 00:47:43;;;;;;;;;0.33;0.33;;;;;;;;4957119;28;46058;-53
2021/12/30 00:50:08;;;;;;;;;0.00;0.00;;;;;;;;4957171;28;45347;-46
2021/12/30 00:52:34;;;;;;;;;1.00;1.00;;;;;;;;4957282;28;45278;-51
2021/12/30 00:54:59;;;;;;;;;0.00;0.00;;;;;;;;4957451;28;45235;-47
2021/12/30 00:57:24;;;;;;;;;0.00;0.00;;;;;;;;4960447;28;46008;-53
2021/12/30 00:59:50;;;;;;;;;1.33;0.67;;;;;;;;4960809;28;45390;-50
2021/12/30 01:02:15;;;;;;;;;0.67;0.67;;;;;;;;4960849;28;45483;-50
2021/12/30 01:04:40;;;;;;;;;0.33;0.33;;;;;;;;4960610;28;45355;-50
2021/12/30 01:07:05;;;;;;;;;0.00;0.00;;;;;;;;4960284;28;46340;-48
2021/12/30 01:09:31;;;;;;;;;1.00;1.00;;;;;;;;4960546;28;45238;-50
2021/12/30 01:11:58;;;;;;;;;1.00;1.00;;;;;;;;4960569;28;45277;-51
2021/12/30 01:14:27;;;;;;;;;0.67;0.67;;;;;;;;4960489;28;45559;-48
2021/12/30 01:16:56;;;;;;;;;0.00;0.00;;;;;;;;4959813;28;45359;-48
2021/12/30 01:19:43;;;;;;;;;0.67;0.67;;;;;;;;4960286;28;45369;-50
2021/12/30 01:22:08;;;;;;;;;1.00;1.00;;;;;;;;4959813;28;45374;-49
2021/12/30 01:24:34;;;;;;;;;0.00;0.00;;;;;;;;4960464;28;45424;-47
2021/12/30 01:26:59;;;;;;;;;0.00;0.00;;;;;;;;4959652;28;46025;-48
2021/12/30 01:29:26;;;;;;;;;1.00;1.00;;;;;;;;4958856;28;45550;-48
2021/12/30 01:31:51;;;;;;;;;0.67;0.67;;;;;;;;4960351;28;45322;-50
2021/12/30 01:34:16;;;;;;;;;1.00;1.00;;;;;;;;4960302;28;45225;-50
2021/12/30 01:36:42;;;;;;;;;1.67;1.00;;;;;;;;4960041;28;45511;-50
2021/12/30 01:39:07;;;;;;;;;0.00;0.00;;;;;;;;4959484;28;45434;-50
2021/12/30 01:41:32;;;;;;;;;1.00;1.00;;;;;;;;4960297;28;45422;-51
2021/12/30 01:43:57;;;;;;;;;1.00;1.00;;;;;;;;4960136;28;45357;-49
2021/12/30 01:46:23;;;;;;;;;0.00;0.00;;;;;;;;4960055;28;46035;-48
2021/12/30 01:48:48;;;;;;;;;0.00;0.00;;;;;;;;4959783;28;45350;-51
2021/12/30 01:51:13;;;;;;;;;0.00;0.00;;;;;;;;4958439;28;45287;-48
2021/12/30 01:53:39;;;;;;;;;1.00;1.00;;;;;;;;4958569;28;45256;-51
2021/12/30 01:56:04;;;;;;;;;0.00;0.00;;;;;;;;4959899;28;45370;-52
2021/12/30 01:58:30;;;;;;;;;0.00;0.00;;;;;;;;4959957;28;45309;-51
2021/12/30 02:00:55;;;;;;;;;1.00;1.00;;;;;;;;4959431;28;45189;-52
2021/12/30 02:03:21;;;;;;;;;0.00;0.00;;;;;;;;4959894;28;45282;-51
2021/12/30 02:05:47;;;;;;;;;1.67;0.67;;;;;;;;4959656;28;45239;-52
2021/12/30 02:08:15;;;;;;;;;2.00;0.00;;;;;;;;4959582;28;45234;-48
2021/12/30 02:10:41;;;;;;;;;0.00;0.00;;;;;;;;4959616;28;45345;-48
2021/12/30 02:13:07;;;;;;;;;0.00;0.00;;;;;;;;4959216;28;45291;-50
2021/12/30 02:15:33;;;;;;;;;0.00;0.00;;;;;;;;4959609;28;46510;-50
2021/12/30 02:17:59;;;;;;;;;0.00;0.00;;;;;;;;4959616;28;45476;-52
2021/12/30 02:20:46;;;;;;;;;1.00;1.00;;;;;;;;4959602;28;45423;-49
2021/12/30 02:23:19;;;;;;;;;0.67;0.67;;;;;;;;4959167;28;45338;-50
2021/12/30 02:25:44;;;;;;;;;0.00;0.00;;;;;;;;4959454;28;46123;-53
2021/12/30 02:28:11;;;;;;;;;0.33;0.00;;;;;;;;4959467;28;45358;-52
2021/12/30 02:30:37;;;;;;;;;0.67;0.67;;;;;;;;4959311;28;45225;-51
2021/12/30 02:33:02;;;;;;;;;0.00;0.00;;;;;;;;4958610;28;45199;-48
2021/12/30 02:35:27;;;;;;;;;0.33;0.33;;;;;;;;4958955;28;46273;-50
2021/12/30 02:37:53;;;;;;;;;1.00;1.00;;;;;;;;4959130;28;45233;-49
2021/12/30 02:40:25;;;;;;;;;0.00;0.00;;;;;;;;4959387;28;45210;-49
2021/12/30 02:42:50;;;;;;;;;0.00;0.00;;;;;;;;4959331;28;45230;-51
2021/12/30 02:45:16;;;;;;;;;0.00;0.00;;;;;;;;4958402;28;45391;-52
2021/12/30 02:47:41;;;;;;;;;1.00;1.00;;;;;;;;4959022;28;45186;-52
2021/12/30 02:50:06;;;;;;;;;2.00;0.67;;;;;;;;4958896;28;45425;-49
2021/12/30 02:52:31;;;;;;;;;1.00;0.00;;;;;;;;4959059;28;45227;-52
2021/12/30 02:54:56;;;;;;;;;0.00;0.00;;;;;;;;4958422;28;45362;-51
2021/12/30 02:57:25;;;;;;;;;1.00;0.00;;;;;;;;4958668;28;45200;-48
2021/12/30 02:59:50;;;;;;;;;0.00;0.00;;;;;;;;4957625;28;45401;-47
2021/12/30 03:02:15;;;;;;;;;0.00;0.00;;;;;;;;4958918;28;45501;-51
2021/12/30 03:04:41;;;;;;;;;0.00;0.00;;;;;;;;4958692;28;45464;-49
2021/12/30 03:07:06;;;;;;;;;1.00;1.00;;;;;;;;4958375;28;45425;-51
2021/12/30 03:09:32;;;;;;;;;0.00;0.00;;;;;;;;4958703;28;45588;-47
2021/12/30 03:11:57;;;;;;;;;0.00;0.00;;;;;;;;4958676;28;45540;-48
2021/12/30 03:14:24;;;;;;;;;0.00;0.00;;;;;;;;4958432;28;46186;-51
2021/12/30 03:16:50;;;;;;;;;1.00;1.00;;;;;;;;4958112;28;45301;-51
2021/12/30 03:19:15;;;;;;;;;1.00;0.00;;;;;;;;4958033;28;45245;-52
2021/12/30 03:21:40;;;;;;;;;0.00;0.00;;;;;;;;4958856;28;45187;-52
2021/12/30 03:24:06;;;;;;;;;0.33;0.33;;;;;;;;4958375;28;46365;-51
2021/12/30 03:26:32;;;;;;;;;1.00;0.00;;;;;;;;4958385;28;45307;-51
2021/12/30 03:28:57;;;;;;;;;0.00;0.00;;;;;;;;4958138;28;45379;-49
2021/12/30 03:31:22;;;;;;;;;0.00;0.00;;;;;;;;4958553;28;45350;-49
2021/12/30 03:33:48;;;;;;;;;0.00;0.00;;;;;;;;4958434;28;45288;-50
2021/12/30 03:36:14;;;;;;;;;0.00;0.00;;;;;;;;4958460;28;45691;-50
2021/12/30 03:38:41;;;;;;;;;0.00;0.00;;;;;;;;4958350;28;45411;-49
2021/12/30 03:41:07;;;;;;;;;0.00;0.00;;;;;;;;4957892;28;45477;-49
2021/12/30 03:43:33;;;;;;;;;0.33;0.33;;;;;;;;4958329;28;45388;-52
2021/12/30 03:45:58;;;;;;;;;0.00;0.00;;;;;;;;4958275;28;45496;-51
2021/12/30 03:48:31;;;;;;;;;0.00;0.00;;;;;;;;4958400;28;45422;-52
2021/12/30 03:50:57;;;;;;;;;0.00;0.00;;;;;;;;4957931;28;45322;-49
2021/12/30 03:53:22;;;;;;;;;1.00;0.00;;;;;;;;4958260;28;46024;-50
2021/12/30 03:55:51;;;;;;;;;0.00;0.00;;;;;;;;4958142;28;45277;-49
2021/12/30 03:58:16;;;;;;;;;0.00;0.00;;;;;;;;4958243;28;45380;-50
2021/12/30 04:00:42;;;;;;;;;0.00;0.00;;;;;;;;4958171;28;45615;-49
2021/12/30 04:03:07;;;;;;;;;0.67;0.00;;;;;;;;4957741;28;46152;-52
2021/12/30 04:05:32;;;;;;;;;0.00;0.00;;;;;;;;4958137;28;45413;-50
2021/12/30 04:07:57;;;;;;;;;0.00;0.00;;;;;;;;4957932;28;45464;-49
2021/12/30 04:10:23;;;;;;;;;0.00;0.00;;;;;;;;4958038;28;45541;-54
2021/12/30 04:12:50;;;;;;;;;0.00;0.00;;;;;;;;4957331;28;46031;-50
2021/12/30 04:15:15;;;;;;;;;0.00;0.00;;;;;;;;4957804;28;45413;-51
2021/12/30 04:17:41;;;;;;;;;0.67;0.67;;;;;;;;4957894;28;45270;-49
2021/12/30 04:20:08;;;;;;;;;0.00;0.00;;;;;;;;4957869;28;45537;-53
2021/12/30 04:22:34;;;;;;;;;1.00;1.00;;;;;;;;4957557;28;46024;-52
2021/12/30 04:24:59;;;;;;;;;0.00;0.00;;;;;;;;4957144;28;45409;-54
2021/12/30 04:27:24;;;;;;;;;0.00;0.00;;;;;;;;4957874;28;45397;-54
2021/12/30 04:29:49;;;;;;;;;0.00;0.00;;;;;;;;4956754;28;45202;-53
2021/12/30 04:32:14;;;;;;;;;0.00;0.00;;;;;;;;4957628;28;46334;-51
2021/12/30 04:34:40;;;;;;;;;0.00;0.00;;;;;;;;4957151;28;45214;-52
2021/12/30 04:37:05;;;;;;;;;0.00;0.00;;;;;;;;4957713;28;45315;-51
2021/12/30 04:39:31;;;;;;;;;0.00;0.00;;;;;;;;4957713;28;45453;-52
2021/12/30 04:42:01;;;;;;;;;0.00;0.00;;;;;;;;4957338;28;45269;-51
2021/12/30 04:44:27;;;;;;;;;0.00;0.00;;;;;;;;4957371;28;45445;-52
2021/12/30 04:46:52;;;;;;;;;1.00;0.00;;;;;;;;4957028;28;45496;-54
2021/12/30 04:49:17;;;;;;;;;1.00;1.00;;;;;;;;4956114;28;45653;-48
2021/12/30 04:51:42;;;;;;;;;0.00;0.00;;;;;;;;4957387;28;45376;-50
2021/12/30 04:54:08;;;;;;;;;1.67;1.00;;;;;;;;4957454;28;45396;-50
2021/12/30 04:56:33;;;;;;;;;0.00;0.00;;;;;;;;4956839;28;45440;-50
2021/12/30 04:58:58;;;;;;;;;0.00;0.00;;;;;;;;4957521;28;45523;-49
2021/12/30 05:01:23;;;;;;;;;0.33;0.33;;;;;;;;4957318;28;45374;-51
2021/12/30 05:03:48;;;;;;;;;0.00;0.00;;;;;;;;4957578;28;45510;-52
2021/12/30 05:06:14;;;;;;;;;0.00;0.00;;;;;;;;4957497;28;45406;-52
2021/12/30 05:08:39;;;;;;;;;1.00;1.00;;;;;;;;4956795;28;45385;-51
2021/12/30 05:11:05;;;;;;;;;1.00;0.00;;;;;;;;4957083;28;45409;-52
2021/12/30 05:13:30;;;;;;;;;0.00;0.00;;;;;;;;4957217;28;45245;-51
2021/12/30 05:15:56;;;;;;;;;0.00;0.00;;;;;;;;4957437;28;45226;-50
2021/12/30 05:18:29;;;;;;;;;0.00;0.00;;;;;;;;4956653;28;45508;-51
2021/12/30 05:20:54;;;;;;;;;2.00;0.00;;;;;;;;4956892;28;45523;-52
2021/12/30 05:23:20;;;;;;;;;0.00;0.00;;;;;;;;4956900;28;45287;-52
2021/12/30 05:25:45;;;;;;;;;0.00;0.00;;;;;;;;4957043;28;45366;-50
2021/12/30 05:28:10;;;;;;;;;1.00;1.00;;;;;;;;4957318;28;45486;-52
2021/12/30 05:30:36;;;;;;;;;0.00;0.00;;;;;;;;4956379;28;45258;-52
2021/12/30 05:33:01;;;;;;;;;1.33;0.00;;;;;;;;4956881;28;45231;-51
2021/12/30 05:35:27;;;;;;;;;0.33;0.00;;;;;;;;4956884;28;45271;-48
2021/12/30 05:37:52;;;;;;;;;0.33;0.33;;;;;;;;4956975;28;45544;-52
2021/12/30 05:40:18;;;;;;;;;0.00;0.00;;;;;;;;4956192;28;45245;-49
2021/12/30 05:42:45;;;;;;;;;1.33;0.67;;;;;;;;4959785;28;45532;-52
2021/12/30 05:45:10;;;;;;;;;1.33;1.00;;;;;;;;4960345;28;45499;-53
2021/12/30 05:47:36;;;;;;;;;0.00;0.00;;;;;;;;4959718;28;45503;-51
2021/12/30 05:50:03;;;;;;;;;2.00;2.00;;;;;;;;4959823;28;46070;-50
2021/12/30 05:52:28;;;;;;;;;1.00;1.00;;;;;;;;4959495;28;45654;-50
2021/12/30 05:54:53;;;;;;;;;1.00;1.00;;;;;;;;4960161;28;45282;-50
2021/12/30 05:57:18;;;;;;;;;2.00;1.00;;;;;;;;4960033;28;45337;-49
2021/12/30 05:59:44;;;;;;;;;1.00;1.00;;;;;;;;4959882;28;45972;-51
2021/12/30 06:02:09;;;;;;;;;1.33;1.00;;;;;;;;4958287;28;45413;-51
2021/12/30 06:04:34;;;;;;;;;1.00;1.00;;;;;;;;4959928;28;45231;-52
2021/12/30 06:06:59;;;;;;;;;1.00;1.00;;;;;;;;4959918;28;45568;-51
2021/12/30 06:09:26;;;;;;;;;2.00;1.00;;;;;;;;4959721;28;45282;-50
2021/12/30 06:11:51;;;;;;;;;1.33;1.33;;;;;;;;4959539;28;45248;-53
2021/12/30 06:14:17;;;;;;;;;0.00;0.00;;;;;;;;4959286;28;45270;-49
2021/12/30 06:16:42;;;;;;;;;2.00;0.67;;;;;;;;4959742;28;45545;-50
2021/12/30 06:19:07;;;;;;;;;2.33;1.00;;;;;;;;4959428;28;45348;-50
2021/12/30 06:21:32;;;;;;;;;2.33;2.00;;;;;;;;4959462;28;45304;-46
2021/12/30 06:23:57;;;;;;;;;2.67;2.00;;;;;;;;4959188;28;45221;-48
2021/12/30 06:26:23;;;;;;;;;2.67;2.67;;;;;;;;4959544;28;45663;-50
2021/12/30 06:28:48;;;;;;;;;1.00;1.00;;;;;;;;4959299;28;45199;-49
2021/12/30 06:31:13;;;;;;;;;2.00;2.00;;;;;;;;4959298;28;45259;-51
2021/12/30 06:33:39;;;;;;;;;6.33;2.00;;;;;;;;4959474;28;45289;-49
2021/12/30 06:36:04;;;;;;;;;3.00;2.00;;;;;;;;4958863;28;45398;-49
2021/12/30 06:38:30;;;;;;;;;6.00;3.00;;;;;;;;4959052;28;46153;-49
2021/12/30 06:40:55;;;;;;;;;4.00;3.00;;;;;;;;4959097;28;45352;-49
2021/12/30 06:43:20;;;;;;;;;2.33;2.33;;;;;;;;4959435;28;45297;-49
2021/12/30 06:45:45;;;;;;;;;2.67;2.67;;;;;;;;4958678;28;45313;-49
2021/12/30 06:48:14;;;;;;;;;3.33;3.00;;;;;;;;4958428;28;46436;-49
2021/12/30 06:50:40;;;;;;;;;4.33;2.33;;;;;;;;4958902;28;45457;-51
2021/12/30 06:53:05;;;;;;;;;6.00;4.00;;;;;;;;4958087;28;45354;-52
2021/12/30 06:55:30;;;;;;;;;3.67;3.33;;;;;;;;4958967;28;45346;-49
2021/12/30 06:57:55;;;;;;;;;4.00;2.00;;;;;;;;4958125;28;45775;-52
2021/12/30 07:00:21;;;;;;;;;4.00;4.00;;;;;;;;4958742;28;45445;-51
2021/12/30 07:02:46;;;;;;;;;3.00;3.00;;;;;;;;4958853;28;45378;-52
2021/12/30 07:05:12;;;;;;;;;2.00;2.00;;;;;;;;4959138;28;45366;-52
2021/12/30 07:07:37;;;;;;;;;4.00;3.00;;;;;;;;4957369;28;48305;-51
2021/12/30 07:10:03;;;;;;;;;4.00;2.00;;;;;;;;4958272;28;45344;-51
2021/12/30 07:12:29;;;;;;;;;5.00;2.33;;;;;;;;4958653;28;45493;-48
2021/12/30 07:14:54;;;;;;;;;3.33;3.00;;;;;;;;4958691;28;45389;-60
2021/12/30 07:17:19;;;;;;;;;2.00;2.00;;;;;;;;4958473;28;45884;-51
2021/12/30 07:19:44;;;;;;;;;4.67;3.00;;;;;;;;4957979;28;45387;-53
2021/12/30 07:22:10;;;;;;;;;2.33;2.00;;;;;;;;4958737;28;45291;-55
2021/12/30 07:24:35;;;;;;;;;4.33;3.00;;;;;;;;4958540;28;45603;-53
2021/12/30 07:27:00;;;;;;;;;4.00;4.00;;;;;;;;4958410;28;46116;-55
2021/12/30 07:29:25;;;;;;;;;3.00;2.33;;;;;;;;4958498;28;45421;-52
2021/12/30 07:31:50;;;;;;;;;3.00;3.00;;;;;;;;4957831;28;45400;-49
2021/12/30 07:34:16;;;;;;;;;2.00;2.00;;;;;;;;4958500;28;45541;-58
2021/12/30 07:36:41;;;;;;;;;4.67;4.67;;;;;;;;4957343;28;45423;-56
2021/12/30 07:39:06;;;;;;;;;3.67;2.67;;;;;;;;4958433;28;45373;-58
2021/12/30 07:41:32;;;;;;;;;3.67;3.33;;;;;;;;4957933;28;45388;-57
2021/12/30 07:43:57;;;;;;;;;7.67;2.00;;;;;;;;4958376;28;45370;-59
2021/12/30 07:46:22;;;;;;;;;3.33;3.00;;;;;;;;4958199;28;45301;-60
2021/12/30 07:48:47;;;;;;;;;3.67;2.00;;;;;;;;4957977;28;45372;-60
2021/12/30 07:51:13;;;;;;;;;2.67;2.67;;;;;;;;4958074;28;45262;-58
2021/12/30 07:53:39;;;;;;;;;3.00;3.00;;;;;;;;4957535;28;45544;-59
2021/12/30 07:56:05;;;;;;;;;3.33;3.33;;;;;;;;4957741;28;45310;-58
2021/12/30 07:58:30;;;;;;;;;5.00;5.00;;;;;;;;4957843;28;45219;-58
2021/12/30 08:00:56;;;;;;;;;6.33;5.33;;;;;;;;4957878;28;45365;-59
2021/12/30 08:03:21;;;;;;;;;6.00;4.67;;;;;;;;4956119;28;45616;-58
2021/12/30 08:05:46;;;;;;;;;4.00;1.67;;;;;;;;4957676;28;46002;-60
2021/12/30 08:08:11;;;;;;;;;4.33;3.00;;;;;;;;4957825;28;45323;-58
2021/12/30 08:10:37;;;;;;;;;4.00;4.00;;;;;;;;4957831;28;45285;-58
2021/12/30 08:13:02;;;;;;;;;4.00;4.00;;;;;;;;4957971;28;45226;-62
2021/12/30 08:15:28;;;;;;;;;5.33;2.00;;;;;;;;4956821;28;46039;-63
2021/12/30 08:17:54;;;;;;;;;4.00;4.00;;;;;;;;4957549;28;45341;-60
2021/12/30 08:20:22;;;;;;;;;6.33;3.00;;;;;;;;4957545;28;45476;-59
2021/12/30 08:22:47;;;;;;;;;6.00;5.33;;;;;;;;4957266;28;45518;-56
2021/12/30 08:25:13;;;;;;;;;4.00;2.33;;;;;;;;4956624;28;45726;-58
2021/12/30 08:27:38;;;;;;;;;4.00;1.67;;;;;;;;4957460;28;45372;-59
2021/12/30 08:30:05;;;;;;;;;4.00;2.67;;;;;;;;4957501;28;45367;-59
2021/12/30 08:32:31;;;;;;;;;2.67;2.33;;;;;;;;4957493;28;45313;-59
2021/12/30 08:34:56;;;;;;;;;4.00;2.33;;;;;;;;4957190;28;46190;-58
2021/12/30 08:37:21;;;;;;;;;3.67;2.00;;;;;;;;4956816;28;45394;-60
2021/12/30 08:39:46;;;;;;;;;7.00;4.33;;;;;;;;4957487;28;45303;-59
2021/12/30 08:42:19;;;;;;;;;2.67;2.67;;;;;;;;4957347;28;45599;-59
2021/12/30 08:44:45;;;;;;;;;4.00;3.33;;;;;;;;4957012;28;45345;-60
2021/12/30 08:47:11;;;;;;;;;3.00;3.00;;;;;;;;4956479;28;45396;-59
2021/12/30 08:49:36;;;;;;;;;4.33;3.00;;;;;;;;4956002;28;45329;-59
2021/12/30 08:52:01;;;;;;;;;2.67;2.67;;;;;;;;4956953;28;45332;-59
2021/12/30 08:54:26;;;;;;;;;5.00;3.67;;;;;;;;4957066;28;46271;-58
2021/12/30 08:56:51;;;;;;;;;3.00;2.00;;;;;;;;4956791;28;45388;-58
2021/12/30 08:59:17;;;;;;;;;5.00;4.00;;;;;;;;4956643;28;45356;-58
2021/12/30 09:01:42;;;;;;;;;4.00;3.33;;;;;;;;4956896;28;45346;-61
2021/12/30 09:04:07;;;;;;;;;4.00;4.00;;;;;;;;4956899;28;45799;-59
2021/12/30 09:06:32;;;;;;;;;6.67;4.00;;;;;;;;4956816;28;45309;-59
2021/12/30 09:08:58;;;;;;;;;7.67;4.00;;;;;;;;4956533;28;45443;-60
2021/12/30 09:11:23;;;;;;;;;3.67;3.67;;;;;;;;4956790;28;45568;-59
2021/12/30 09:13:48;;;;;;;;;4.33;3.00;;;;;;;;4956683;28;45973;-58
2021/12/30 09:16:13;;;;;;;;;5.33;3.33;;;;;;;;4957942;28;45446;-60
2021/12/30 09:18:40;;;;;;;;;3.00;3.00;;;;;;;;4960356;28;45310;-61
2021/12/30 09:21:05;;;;;;;;;3.00;3.00;;;;;;;;4959545;28;45275;-59
2021/12/30 09:23:30;;;;;;;;;5.67;3.67;;;;;;;;4960208;28;45417;-59
2021/12/30 09:25:56;;;;;;;;;3.00;2.00;;;;;;;;4960155;28;45332;-61
2021/12/30 09:28:24;;;;;;;;;2.00;2.00;;;;;;;;4958925;28;45357;-59
2021/12/30 09:30:49;;;;;;;;;6.33;4.00;;;;;;;;4960062;28;45314;-60
2021/12/30 09:33:15;;;;;;;;;5.67;3.67;;;;;;;;4959565;28;46338;-58
2021/12/30 09:35:41;;;;;;;;;6.33;4.00;;;;;;;;4959921;28;45326;-62
2021/12/30 09:38:06;;;;;;;;;4.00;4.00;;;;;;;;4960023;28;45331;-59
2021/12/30 09:40:31;;;;;;;;;3.00;3.00;;;;;;;;4960110;28;45248;-61
2021/12/30 09:43:01;;;;;;;;;5.67;3.00;;;;;;;;4959200;28;46034;-58
2021/12/30 09:45:27;;;;;;;;;2.67;2.67;;;;;;;;4958673;28;45437;-59
2021/12/30 09:47:54;;;;;;;;;4.00;2.67;;;;;;;;4959874;28;45404;-60
2021/12/30 09:50:21;;;;;;;;;2.00;2.00;;;;;;;;4959703;28;45539;-61
2021/12/30 09:52:47;;;;;;;;;6.00;4.00;;;;;;;;4959222;28;45387;-61
2021/12/30 09:55:12;;;;;;;;;2.67;2.67;;;;;;;;4959213;28;45181;-58
2021/12/30 09:57:38;;;;;;;;;3.00;2.00;;;;;;;;4959750;28;45748;-59
2021/12/30 10:00:05;;;;;;;;;6.00;4.33;;;;;;;;4959442;28;45342;-59
2021/12/30 10:02:31;;;;;;;;;4.00;2.00;;;;;;;;4959319;28;46092;-60
2021/12/30 10:05:09;;;;;;;;;4.00;4.00;;;;;;;;4958834;28;45798;-59
2021/12/30 10:07:34;;;;;;;;;5.00;3.33;;;;;;;;4959621;28;45436;-60
2021/12/30 10:10:02;;;;;;;;;5.67;3.67;;;;;;;;4959359;28;45514;-58
2021/12/30 10:12:33;;;;;;;;;8.00;5.33;;;;;;;;4959357;28;45254;-61
2021/12/30 10:14:59;;;;;;;;;4.33;4.00;;;;;;;;4958706;28;45261;-60
2021/12/30 10:17:25;;;;;;;;;4.00;3.00;;;;;;;;4959208;28;45234;-59
2021/12/30 10:19:51;;;;;;;;;5.00;4.67;;;;;;;;4959105;28;45233;-60
2021/12/30 10:22:18;;;;;;;;;7.33;6.00;;;;;;;;4959017;28;45345;-60
2021/12/30 10:24:44;;;;;;;;;3.33;3.33;;;;;;;;4959032;28;45536;-59
2021/12/30 10:27:21;;;;;;;;;7.00;4.00;;;;;;;;4957909;28;45445;-60
2021/12/30 10:29:48;;;;;;;;;4.67;4.33;;;;;;;;4958843;28;45366;-60
2021/12/30 10:32:14;;;;;;;;;4.33;2.67;;;;;;;;4958848;28;46057;-59
2021/12/30 10:35:00;;;;;;;;;3.33;2.67;;;;;;;;4958981;28;45285;-61
2021/12/30 10:37:25;;;;;;;;;7.33;4.67;;;;;;;;4956655;28;45248;-60
2021/12/30 10:39:50;;;;;;;;;6.00;4.00;;;;;;;;4959129;28;45223;-60
2021/12/30 10:42:21;;;;;;;;;7.00;5.00;;;;;;;;4958624;28;46189;-59
2021/12/30 10:44:46;;;;;;;;;6.00;6.00;;;;;;;;4957205;28;45445;-59
2021/12/30 10:47:11;;;;;;;;;5.00;3.67;;;;;;;;4958887;28;45432;-60
2021/12/30 10:49:36;;;;;;;;;3.33;3.33;;;;;;;;4958398;28;45334;-60
2021/12/30 10:52:05;;;;;;;;;6.00;5.00;;;;;;;;4958651;28;45387;-61
2021/12/30 10:54:32;;;;;;;;;4.00;3.00;;;;;;;;4957417;28;45442;-59
2021/12/30 10:56:57;;;;;;;;;4.00;3.00;;;;;;;;4958789;28;45315;-60
2021/12/30 10:59:22;;;;;;;;;2.67;1.67;;;;;;;;4958298;28;45179;-61
2021/12/30 11:01:50;;;;;;;;;4.00;4.00;;;;;;;;4958661;28;45385;-61
2021/12/30 11:04:17;;;;;;;;;3.00;3.00;;;;;;;;4958706;28;45283;-60
2021/12/30 11:06:42;;;;;;;;;3.67;3.67;;;;;;;;4958754;28;45417;-60
2021/12/30 11:09:09;;;;;;;;;6.00;3.00;;;;;;;;4958655;28;45480;-61
2021/12/30 11:11:34;;;;;;;;;5.00;3.00;;;;;;;;4958171;28;45461;-59
2021/12/30 11:14:06;;;;;;;;;5.33;4.33;;;;;;;;4958509;28;45303;-61
2021/12/30 11:16:33;;;;;;;;;6.00;2.33;;;;;;;;4958810;28;45374;-59
2021/12/30 11:18:58;;;;;;;;;4.00;4.00;;;;;;;;4958437;28;45524;-61
2021/12/30 11:21:37;;;;;;;;;5.00;3.33;;;;;;;;4957460;28;46067;-60
2021/12/30 11:24:02;;;;;;;;;3.33;3.33;;;;;;;;4958236;28;45399;-59
2021/12/30 11:26:28;;;;;;;;;3.00;3.00;;;;;;;;4958187;28;45357;-60
2021/12/30 11:28:53;;;;;;;;;5.00;4.00;;;;;;;;4958417;28;45466;-61
2021/12/30 11:31:18;;;;;;;;;3.00;3.00;;;;;;;;4958297;28;45341;-59
2021/12/30 11:33:45;;;;;;;;;3.00;2.00;;;;;;;;4957814;28;45326;-57
2021/12/30 11:36:10;;;;;;;;;4.00;2.00;;;;;;;;4958313;28;45494;-55
2021/12/30 11:38:35;;;;;;;;;5.67;5.67;;;;;;;;4957738;28;45596;-57
2021/12/30 11:41:01;;;;;;;;;8.33;5.67;;;;;;;;4958285;28;46153;-59
2021/12/30 11:43:40;;;;;;;;;4.00;3.00;;;;;;;;4957383;28;45468;-61
2021/12/30 11:46:06;;;;;;;;;25.67;24.33;;;;;;;;4956948;28;45459;-60
2021/12/30 11:48:38;;;;;;;;;3.33;3.33;;;;;;;;4957904;28;45441;-61
2021/12/30 11:51:11;;;;;;;;;8.00;5.33;;;;;;;;4972293;28;47786;-61
2021/12/30 11:53:38;;;;;;;;;8.33;7.00;;;;;;;;4957546;28;45360;-62
2021/12/30 11:56:11;;;;;;;;;7.00;5.00;;;;;;;;4957560;28;45421;-63
2021/12/30 11:58:40;;;;;;;;;3.00;3.00;;;;;;;;4957850;28;45313;-62
2021/12/30 12:01:11;;;;;;;;;4.00;4.00;;;;;;;;4957509;28;46659;-64
2021/12/30 12:03:40;;;;;;;;;15.33;12.33;;;;;;;;4957682;28;45443;-58
2021/12/30 12:06:25;;;;;;;;;6.67;5.67;;;;;;;;4957364;28;45502;-55
2021/12/30 12:08:51;;;;;;;;;4.67;4.00;;;;;;;;4957554;28;45457;-56
2021/12/30 12:11:18;;;;;;;;;2.67;2.00;;;;;;;;4957336;28;46368;-56
2021/12/30 12:13:44;;;;;;;;;3.00;2.00;;;;;;;;4957393;28;45270;-55
2021/12/30 12:16:12;;;;;;;;;2.00;2.00;;;;;;;;4957199;28;45227;-57
2021/12/30 12:18:43;;;;;;;;;2.67;2.67;;;;;;;;4957429;28;45377;-59
2021/12/30 12:21:08;;;;;;;;;1.00;1.00;;;;;;;;4956030;28;45409;-57
2021/12/30 12:23:36;;;;;;;;;2.00;2.00;;;;;;;;4957277;28;45223;-58
2021/12/30 12:26:06;;;;;;;;;4.67;3.00;;;;;;;;4957439;28;45477;-56
2021/12/30 12:28:31;;;;;;;;;1.00;1.00;;;;;;;;4956963;28;45488;-58
2021/12/30 12:30:57;;;;;;;;;4.67;2.00;;;;;;;;4957386;28;46305;-57
2021/12/30 12:33:27;;;;;;;;;4.33;3.00;;;;;;;;4957476;28;45254;-59
2021/12/30 12:35:52;;;;;;;;;4.67;2.67;;;;;;;;4957679;28;45411;-58
2021/12/30 12:38:36;;;;;;;;;3.00;2.00;;;;;;;;4956978;28;45357;-57
2021/12/30 12:41:02;;;;;;;;;3.00;3.00;;;;;;;;4957499;28;45410;-57
2021/12/30 12:43:28;;;;;;;;;3.33;2.00;;;;;;;;4957231;28;45484;-58
2021/12/30 12:45:53;;;;;;;;;3.00;1.67;;;;;;;;4957498;28;45300;-56
2021/12/30 12:48:21;;;;;;;;;2.67;2.67;;;;;;;;4957360;28;45593;-58
2021/12/30 12:50:48;;;;;;;;;3.33;3.00;;;;;;;;4955583;28;46178;-58
2021/12/30 12:53:28;;;;;;;;;2.00;2.00;;;;;;;;4957276;28;45369;-55
2021/12/30 12:55:57;;;;;;;;;3.00;3.00;;;;;;;;4957262;28;45258;-59
2021/12/30 12:58:23;;;;;;;;;1.33;1.33;;;;;;;;4957155;28;45522;-59
2021/12/30 13:00:49;;;;;;;;;1.00;0.00;;;;;;;;4956330;28;46211;-58
2021/12/30 13:03:15;;;;;;;;;4.00;2.00;;;;;;;;4956959;28;45436;-57
2021/12/30 13:05:53;;;;;;;;;16.00;15.00;;;;;;;;4957287;28;45369;-58
2021/12/30 13:08:19;;;;;;;;;4.33;3.00;;;;;;;;4957178;28;45519;-58
2021/12/30 13:10:44;;;;;;;;;4.00;2.67;;;;;;;;4956733;28;46012;-58
2021/12/30 13:13:09;;;;;;;;;2.00;2.00;;;;;;;;4956144;28;45606;-57
2021/12/30 13:15:38;;;;;;;;;1.33;1.33;;;;;;;;4957072;28;45437;-58
2021/12/30 13:18:12;;;;;;;;;4.00;1.00;;;;;;;;4957117;28;45440;-59
2021/12/30 13:20:38;;;;;;;;;2.00;2.00;;;;;;;;4956329;28;45373;-57
2021/12/30 13:23:03;;;;;;;;;4.00;2.33;;;;;;;;4956590;28;45227;-58
2021/12/30 13:25:28;;;;;;;;;7.00;5.00;;;;;;;;4956953;28;45433;-60
2021/12/30 13:27:54;;;;;;;;;4.00;3.00;;;;;;;;4956875;28;45203;-58
2021/12/30 13:30:20;;;;;;;;;3.33;3.33;;;;;;;;4956724;28;45303;-57
2021/12/30 13:32:48;;;;;;;;;4.00;2.00;;;;;;;;4956327;28;45413;-56
2021/12/30 13:35:17;;;;;;;;;2.00;2.00;;;;;;;;4956326;28;45545;-54
2021/12/30 13:37:46;;;;;;;;;2.33;2.33;;;;;;;;4956615;28;45500;-57
2021/12/30 13:40:19;;;;;;;;;4.00;3.33;;;;;;;;4956675;28;45529;-58
2021/12/30 13:42:52;;;;;;;;;3.67;3.67;;;;;;;;4956459;28;45249;-59
2021/12/30 13:45:22;;;;;;;;;3.00;3.00;;;;;;;;4956190;28;45325;-58
2021/12/30 13:47:47;;;;;;;;;6.67;4.00;;;;;;;;4955097;28;45466;-58
2021/12/30 13:50:14;;;;;;;;;3.67;3.67;;;;;;;;4956250;28;45310;-59
2021/12/30 13:52:40;;;;;;;;;2.33;1.00;;;;;;;;4956301;28;45270;-60
2021/12/30 13:55:08;;;;;;;;;3.33;2.00;;;;;;;;4955858;28;45317;-58
2021/12/30 13:57:34;;;;;;;;;2.00;2.00;;;;;;;;4956292;28;45235;-59
2021/12/30 14:00:00;;;;;;;;;2.33;2.33;;;;;;;;4954587;28;47005;-58
2021/12/30 14:02:25;;;;;;;;;4.00;4.00;;;;;;;;4957274;28;45330;-58
2021/12/30 14:04:50;;;;;;;;;2.67;2.67;;;;;;;;4960003;28;45680;-58
2021/12/30 14:07:18;;;;;;;;;2.67;2.67;;;;;;;;4959181;28;45555;-52
2021/12/30 14:09:54;;;;;;;;;3.33;3.33;;;;;;;;4960591;28;46610;-50
2021/12/30 14:12:19;;;;;;;;;3.33;3.00;;;;;;;;4977883;28;45412;-57
2021/12/30 14:14:46;;;;;;;;;2.33;2.00;;;;;;;;4978912;28;45275;-58
2021/12/30 14:17:15;;;;;;;;;3.67;3.33;;;;;;;;4978446;28;45306;-60
2021/12/30 14:19:41;;;;;;;;;2.00;2.00;;;;;;;;4978311;28;45457;-61
2021/12/30 14:22:07;;;;;;;;;4.00;2.00;;;;;;;;4977221;28;45509;-66
2021/12/30 14:24:33;;;;;;;;;3.00;3.00;;;;;;;;4978012;28;45410;-59
2021/12/30 14:27:03;;;;;;;;;3.33;3.33;;;;;;;;4978812;28;45388;-53
2021/12/30 14:29:32;;;;;;;;;1.00;1.00;;;;;;;;4977604;28;45324;-61
2021/12/30 14:32:03;;;;;;;;;1.33;1.33;;;;;;;;4978434;28;45298;-54
2021/12/30 14:34:35;;;;;;;;;1.33;1.33;;;;;;;;4978457;28;45500;-50
2021/12/30 14:37:10;;;;;;;;;5.33;3.00;;;;;;;;4978656;28;45357;-55
2021/12/30 14:39:42;;;;;;;;;3.33;3.00;;;;;;;;4976539;28;45428;-65